hahaxue.com alexa rank chart, hahaxue.com alexa rank daily changes

hahaxue.com alexa rank chart, hahaxue.com alexa rank daily changes

hahaxue.com
Actual rank:
202 870

RANK HISTORY

Date Rank Diff
2017/03/25 202 870 +9 304
2017/03/24 193 566 -249
2017/03/23 193 815 -204
2017/03/22 194 019 +9 200
2017/03/21 184 819 +9 626
2017/03/20 175 193 +2 098
2017/03/19 173 095 +7 402
2017/03/18 165 693 -14 216
2017/03/17 179 909 +33 257
2017/03/16 146 652 +4 824
2017/03/15 141 828 -4 226
2017/03/14 146 054 +5 138
2017/03/13 140 916 +8 840
2017/03/12 132 076 +4 266
2017/03/11 127 810 -74
2017/03/10 127 884 +2 717
2017/03/09 125 167 -4 051
2017/03/08 129 218 +1 127
2017/03/07 128 091 -3 070
2017/03/06 131 161 +80
2017/03/01 131 081 -403
2017/02/28 131 484 -2
2017/02/27 131 486 -10 328
2017/02/26 141 814 +2 681
2017/02/25 139 133 +7 653
2017/02/24 131 480 +7 739
2017/02/23 123 741 +10 183
2017/02/22 113 558 -2 956
2017/02/21 116 514 -1 485
2017/02/20 117 999 +1 350
2017/02/19 116 649 -3 881
2017/02/18 120 530 -141
2017/02/17 120 671 -28 535
2017/02/16 149 206 +1 275
2017/02/15 147 931 +4 894
2017/02/14 143 037 -5 632
2017/02/13 148 669 -11 470
2017/02/12 160 139 -1 191
2017/02/11 161 330 -6 684
2017/02/10 168 014 -4 556
2017/02/09 172 570 -274
2017/02/08 172 844 +7 807
2017/02/07 165 037 +12 247
2017/02/06 152 790 +3 685
2017/02/05 149 105 -1 283
2017/02/04 150 388 -448
2017/02/03 150 836 -4 880
2017/02/02 155 716 +5
2017/02/01 155 711 +3 731
2017/01/31 151 980 +8 816
2017/01/30 143 164 -1 577
2017/01/29 144 741 -1 148
2017/01/28 145 889 -385
2017/01/27 146 274 +10 460
2017/01/26 135 814 -7 095
2017/01/25 142 909 -8 058
2017/01/24 150 967

WIDGET FOR YOUR SITE

DOMAINS WITH THE NEAREST RANK

Domain Rank
professional-counselling.com 202 865
audiokinetic.com 202 866
hardwaresource.com 202 867
worldofnews.ml 202 868
chongsamo.co.kr 202 869
hahaxue.com 202 870
rave.ac.uk 202 871
handicaps.co.za 202 872
otaden.jp 202 873
targethunter.net 202 874
hpwjs.com 202 875

DOMAINS WITH THE NEAREST RANK BY TLD .com

Domain Rank
ntalker.com 202 863
hydro.com 202 864
professional-counselling.com 202 865
audiokinetic.com 202 866
hardwaresource.com 202 867
hahaxue.com 202 870
hpwjs.com 202 875
bristol247.com 202 876
ctelegram.com 202 877
musictory.com 202 878
sujonhera.com 202 881